createdAt,value
2022-09-22T00:00:30.407Z,1025.18
2022-09-22T00:01:30.550Z,1025.17
2022-09-22T00:02:30.492Z,1025.16
2022-09-22T00:03:30.422Z,1025.17
2022-09-22T00:04:30.397Z,1025.19
2022-09-22T00:05:30.453Z,1025.19
2022-09-22T00:06:30.413Z,1025.19
2022-09-22T00:07:30.404Z,1025.2
2022-09-22T00:08:30.612Z,1025.2
2022-09-22T00:09:30.416Z,1025.21
2022-09-22T00:10:30.438Z,1025.22
2022-09-22T00:11:30.390Z,1025.23
2022-09-22T00:12:30.405Z,1025.23
2022-09-22T00:13:30.411Z,1025.21
2022-09-22T00:14:30.401Z,1025.21
2022-09-22T00:15:30.414Z,1025.21
2022-09-22T00:16:30.446Z,1025.22
2022-09-22T00:17:30.397Z,1025.19
2022-09-22T00:18:30.436Z,1025.21
2022-09-22T00:19:30.406Z,1025.19
2022-09-22T00:20:30.396Z,1025.19
2022-09-22T00:21:30.403Z,1025.17
2022-09-22T00:22:30.397Z,1025.16
2022-09-22T00:23:30.424Z,1025.18
2022-09-22T00:24:30.399Z,1025.17
2022-09-22T00:25:30.407Z,1025.16
2022-09-22T00:26:30.386Z,1025.17
2022-09-22T00:27:30.413Z,1025.16
2022-09-22T00:28:30.449Z,1025.16
2022-09-22T00:29:30.427Z,1025.14
2022-09-22T00:30:30.429Z,1025.13
2022-09-22T00:31:30.528Z,1025.09
2022-09-22T00:32:30.405Z,1025.11
2022-09-22T00:33:30.415Z,1025.12
2022-09-22T00:34:30.410Z,1025.14
2022-09-22T00:35:30.405Z,1025.12
2022-09-22T00:36:30.410Z,1025.14
2022-09-22T00:37:30.411Z,1025.14
2022-09-22T00:38:30.421Z,1025.12
2022-09-22T00:39:30.407Z,1025.16
2022-09-22T00:40:30.456Z,1025.14
2022-09-22T00:41:30.412Z,1025.14
2022-09-22T00:42:30.406Z,1025.11
2022-09-22T00:43:30.415Z,1025.08
2022-09-22T00:44:30.404Z,1025.04
2022-09-22T00:45:30.418Z,1025.01
2022-09-22T00:46:30.479Z,1025.01
2022-09-22T00:47:30.404Z,1025.06
2022-09-22T00:48:30.415Z,1025
2022-09-22T00:49:30.409Z,1024.99
2022-09-22T00:50:30.416Z,1025.04
2022-09-22T00:51:30.411Z,1025.01
2022-09-22T00:52:30.402Z,1025.02
2022-09-22T00:53:30.415Z,1025.04
2022-09-22T00:54:30.401Z,1025.05
2022-09-22T00:55:30.410Z,1024.99
2022-09-22T00:56:30.410Z,1024.98
2022-09-22T00:57:30.420Z,1024.98
2022-09-22T00:58:30.424Z,1024.97
2022-09-22T00:59:30.398Z,1024.98
2022-09-22T01:00:30.467Z,1025.02
2022-09-22T01:01:30.445Z,1025.02
2022-09-22T01:02:30.407Z,1025.05
2022-09-22T01:03:30.412Z,1025.01
2022-09-22T01:04:30.408Z,1025.01
2022-09-22T01:05:30.418Z,1024.97
2022-09-22T01:06:30.407Z,1024.99
2022-09-22T01:07:30.402Z,1024.97
2022-09-22T01:08:30.415Z,1024.97
2022-09-22T01:09:30.409Z,1024.97
2022-09-22T01:10:30.414Z,1024.98
2022-09-22T01:11:30.408Z,1024.98
2022-09-22T01:12:30.408Z,1024.98
2022-09-22T01:13:30.428Z,1024.97
2022-09-22T01:14:30.413Z,1024.96
2022-09-22T01:15:30.430Z,1024.94
2022-09-22T01:16:30.438Z,1024.91
2022-09-22T01:17:30.403Z,1024.91
2022-09-22T01:18:30.419Z,1024.89
2022-09-22T01:19:30.405Z,1024.93
2022-09-22T01:20:30.424Z,1024.89
2022-09-22T01:21:30.396Z,1024.92
2022-09-22T01:22:30.406Z,1024.9
2022-09-22T01:23:30.419Z,1024.97
2022-09-22T01:24:30.401Z,1024.95
2022-09-22T01:25:30.405Z,1024.95
2022-09-22T01:26:30.398Z,1024.96
2022-09-22T01:27:30.405Z,1024.96
2022-09-22T01:28:30.412Z,1024.96
2022-09-22T01:29:30.408Z,1024.93
2022-09-22T01:30:30.413Z,1024.94
2022-09-22T01:31:30.433Z,1024.92
2022-09-22T01:32:30.397Z,1024.93
2022-09-22T01:33:30.433Z,1024.94
2022-09-22T01:34:30.407Z,1024.92
2022-09-22T01:35:30.399Z,1024.94
2022-09-22T01:36:30.404Z,1024.97
2022-09-22T01:37:30.408Z,1024.91
2022-09-22T01:38:30.409Z,1024.91
2022-09-22T01:39:30.389Z,1024.93
2022-09-22T01:40:30.454Z,1024.95
2022-09-22T01:41:30.404Z,1024.91
2022-09-22T01:42:30.414Z,1024.93
2022-09-22T01:43:30.420Z,1024.93
2022-09-22T01:44:30.405Z,1024.92
2022-09-22T01:45:30.402Z,1024.93
2022-09-22T01:46:30.453Z,1024.87
2022-09-22T01:47:30.418Z,1024.87
2022-09-22T01:48:30.418Z,1024.88
2022-09-22T01:49:30.424Z,1024.87
2022-09-22T01:50:30.415Z,1024.88
2022-09-22T01:51:30.410Z,1024.82
2022-09-22T01:52:30.408Z,1024.83
2022-09-22T01:53:30.431Z,1024.85
2022-09-22T01:54:30.404Z,1024.85
2022-09-22T01:55:30.433Z,1024.82
2022-09-22T01:56:30.406Z,1024.85
2022-09-22T01:57:30.419Z,1024.85
2022-09-22T01:58:30.415Z,1024.84
2022-09-22T01:59:30.472Z,1024.81
2022-09-22T02:00:30.399Z,1024.83
2022-09-22T02:01:30.492Z,1024.82
2022-09-22T02:02:30.598Z,1024.83
2022-09-22T02:03:30.416Z,1024.83
2022-09-22T02:04:30.407Z,1024.81
2022-09-22T02:05:30.424Z,1024.83
2022-09-22T02:06:30.411Z,1024.83
2022-09-22T02:07:30.413Z,1024.82
2022-09-22T02:08:30.436Z,1024.82
2022-09-22T02:09:30.402Z,1024.84
2022-09-22T02:10:30.416Z,1024.82
2022-09-22T02:11:30.403Z,1024.86
2022-09-22T02:12:30.415Z,1024.86
2022-09-22T02:13:30.452Z,1024.81
2022-09-22T02:14:30.412Z,1024.79
2022-09-22T02:15:30.480Z,1024.83
2022-09-22T02:16:30.407Z,1024.75
2022-09-22T02:17:34.923Z,1024.81
2022-09-22T02:18:30.410Z,1024.77
2022-09-22T02:19:30.411Z,1024.79
2022-09-22T02:20:30.401Z,1024.82
2022-09-22T02:21:30.412Z,1024.87
2022-09-22T02:22:30.409Z,1024.85
2022-09-22T02:26:30.428Z,1024.81
2022-09-22T02:27:30.417Z,1024.8
2022-09-22T02:28:30.409Z,1024.81
2022-09-22T02:29:30.425Z,1024.8
2022-09-22T02:30:30.402Z,1024.79
2022-09-22T02:31:30.435Z,1024.83
2022-09-22T02:32:30.415Z,1024.77
2022-09-22T02:33:32.902Z,1024.81
2022-09-22T02:34:30.410Z,1024.76
2022-09-22T02:35:30.419Z,1024.84
2022-09-22T02:36:30.405Z,1024.84
2022-09-22T02:37:30.474Z,1024.81
2022-09-22T02:38:30.407Z,1024.82
2022-09-22T02:39:30.414Z,1024.84
2022-09-22T02:40:30.554Z,1024.8
2022-09-22T02:41:30.415Z,1024.83
2022-09-22T02:42:30.418Z,1024.81
2022-09-22T02:43:30.410Z,1024.83
2022-09-22T02:44:30.419Z,1024.81
2022-09-22T02:45:30.408Z,1024.81
2022-09-22T02:46:30.482Z,1024.77
2022-09-22T02:47:30.395Z,1024.8
2022-09-22T02:48:30.409Z,1024.81
2022-09-22T02:49:30.435Z,1024.75
2022-09-22T02:50:30.453Z,1024.77
2022-09-22T02:51:30.411Z,1024.82
2022-09-22T02:52:30.412Z,1024.81
2022-09-22T02:53:30.409Z,1024.83
2022-09-22T02:54:30.417Z,1024.77
2022-09-22T02:55:30.427Z,1024.75
2022-09-22T02:56:30.428Z,1024.75
2022-09-22T02:57:30.414Z,1024.77
2022-09-22T02:58:30.405Z,1024.72
2022-09-22T02:59:30.431Z,1024.75
2022-09-22T03:00:30.412Z,1024.7
2022-09-22T03:01:30.464Z,1024.73
2022-09-22T03:02:30.409Z,1024.73
2022-09-22T03:03:30.417Z,1024.71
2022-09-22T03:04:30.470Z,1024.69
2022-09-22T03:05:30.418Z,1024.71
2022-09-22T03:06:30.406Z,1024.69
2022-09-22T03:07:30.416Z,1024.67
2022-09-22T03:08:30.410Z,1024.67
2022-09-22T03:09:30.431Z,1024.66
2022-09-22T03:10:30.410Z,1024.67
2022-09-22T03:11:30.434Z,1024.61
2022-09-22T03:12:30.414Z,1024.61
2022-09-22T03:13:30.414Z,1024.64
2022-09-22T03:14:30.470Z,1024.63
2022-09-22T03:15:30.534Z,1024.65
2022-09-22T03:16:30.413Z,1024.69
2022-09-22T03:17:30.408Z,1024.72
2022-09-22T03:18:30.418Z,1024.66
2022-09-22T03:19:30.425Z,1024.63
2022-09-22T03:20:30.412Z,1024.65
2022-09-22T03:21:30.415Z,1024.63
2022-09-22T03:22:30.408Z,1024.64
2022-09-22T03:23:30.425Z,1024.62
2022-09-22T03:24:30.422Z,1024.62
2022-09-22T03:25:30.413Z,1024.62
2022-09-22T03:26:30.421Z,1024.62
2022-09-22T03:27:30.408Z,1024.6
2022-09-22T03:28:30.407Z,1024.63
2022-09-22T03:29:30.424Z,1024.64
2022-09-22T03:30:30.450Z,1024.68
2022-09-22T03:31:30.417Z,1024.7
2022-09-22T03:32:30.414Z,1024.7
2022-09-22T03:33:30.414Z,1024.71
2022-09-22T03:34:30.420Z,1024.65
2022-09-22T03:35:30.426Z,1024.65
2022-09-22T03:36:30.404Z,1024.64
2022-09-22T03:37:30.464Z,1024.64
2022-09-22T03:38:30.412Z,1024.62
2022-09-22T03:39:30.417Z,1024.59
2022-09-22T03:40:30.509Z,1024.61
2022-09-22T03:41:30.414Z,1024.54
2022-09-22T03:42:30.417Z,1024.62
2022-09-22T03:43:30.433Z,1024.61
2022-09-22T03:44:30.419Z,1024.66
2022-09-22T03:45:30.399Z,1024.69
2022-09-22T03:46:30.476Z,1024.66
2022-09-22T03:47:30.428Z,1024.68
2022-09-22T03:48:30.427Z,1024.65
2022-09-22T03:49:30.424Z,1024.62
2022-09-22T03:50:30.399Z,1024.66
2022-09-22T03:51:30.409Z,1024.69
2022-09-22T03:52:30.392Z,1024.64
2022-09-22T03:53:30.414Z,1024.63
2022-09-22T03:54:30.430Z,1024.6
2022-09-22T03:55:30.429Z,1024.58
2022-09-22T03:56:30.432Z,1024.61
2022-09-22T03:57:30.408Z,1024.59
2022-09-22T03:58:30.408Z,1024.63
2022-09-22T03:59:30.423Z,1024.61
2022-09-22T04:00:30.406Z,1024.63
2022-09-22T04:01:30.526Z,1024.58
2022-09-22T04:02:30.448Z,1024.57
2022-09-22T04:03:30.416Z,1024.54
2022-09-22T04:04:30.425Z,1024.55
2022-09-22T04:05:30.416Z,1024.52
2022-09-22T04:06:30.417Z,1024.51
2022-09-22T04:07:30.416Z,1024.45
2022-09-22T04:08:30.407Z,1024.45
2022-09-22T04:09:30.429Z,1024.46
2022-09-22T04:10:30.411Z,1024.49
2022-09-22T04:11:30.424Z,1024.5
2022-09-22T04:12:30.405Z,1024.47
2022-09-22T04:13:30.414Z,1024.48
2022-09-22T04:14:30.414Z,1024.46
2022-09-22T04:15:30.407Z,1024.46
2022-09-22T04:16:30.487Z,1024.5
2022-09-22T04:17:30.410Z,1024.5
2022-09-22T04:18:30.421Z,1024.55
2022-09-22T04:19:30.416Z,1024.56
2022-09-22T04:20:30.413Z,1024.56
2022-09-22T04:21:30.416Z,1024.55
2022-09-22T04:22:30.411Z,1024.57
2022-09-22T04:23:30.416Z,1024.59
2022-09-22T04:24:30.425Z,1024.59
2022-09-22T04:25:30.414Z,1024.58
2022-09-22T04:26:30.419Z,1024.6
2022-09-22T04:27:30.412Z,1024.61
2022-09-22T04:28:30.409Z,1024.63
2022-09-22T04:29:30.413Z,1024.65
2022-09-22T04:30:30.437Z,1024.65
2022-09-22T04:31:30.411Z,1024.7
2022-09-22T04:32:30.418Z,1024.69
2022-09-22T04:33:30.407Z,1024.7
2022-09-22T04:34:30.431Z,1024.73
2022-09-22T04:35:30.408Z,1024.72
2022-09-22T04:36:30.416Z,1024.69
2022-09-22T04:37:30.420Z,1024.74
2022-09-22T04:38:30.412Z,1024.69
2022-09-22T04:39:30.417Z,1024.64
2022-09-22T04:40:30.499Z,1024.59
2022-09-22T04:41:30.426Z,1024.58
2022-09-22T04:42:30.412Z,1024.61
2022-09-22T04:43:30.404Z,1024.58
2022-09-22T04:44:34.782Z,1024.57
2022-09-22T04:45:30.403Z,1024.58
2022-09-22T04:46:30.523Z,1024.56
2022-09-22T04:47:30.411Z,1024.57
2022-09-22T04:48:30.407Z,1024.55
2022-09-22T04:49:30.436Z,1024.5
2022-09-22T04:50:30.405Z,1024.48
2022-09-22T04:51:30.416Z,1024.51
2022-09-22T04:52:30.417Z,1024.5
2022-09-22T04:53:30.411Z,1024.52
2022-09-22T04:54:30.427Z,1024.52
2022-09-22T04:55:30.433Z,1024.56
2022-09-22T04:56:30.447Z,1024.58
2022-09-22T04:57:30.409Z,1024.56
2022-09-22T04:58:30.402Z,1024.56
2022-09-22T04:59:30.422Z,1024.58
2022-09-22T05:00:30.435Z,1024.57
2022-09-22T05:01:30.509Z,1024.6
2022-09-22T05:02:30.399Z,1024.59
2022-09-22T05:03:30.459Z,1024.6
2022-09-22T05:04:30.419Z,1024.61
2022-09-22T05:05:30.406Z,1024.67
2022-09-22T05:06:30.399Z,1024.67
2022-09-22T05:07:30.399Z,1024.66
2022-09-22T05:08:30.399Z,1024.66
2022-09-22T05:09:30.420Z,1024.66
2022-09-22T05:10:30.407Z,1024.65
2022-09-22T05:11:30.422Z,1024.67
2022-09-22T05:12:30.407Z,1024.69
2022-09-22T05:13:30.399Z,1024.7
2022-09-22T05:14:30.419Z,1024.75
2022-09-22T05:15:30.415Z,1024.74
2022-09-22T05:16:30.439Z,1024.74
2022-09-22T05:17:30.411Z,1024.69
2022-09-22T05:18:30.414Z,1024.71
2022-09-22T05:19:30.415Z,1024.72
2022-09-22T05:20:30.409Z,1024.75
2022-09-22T05:21:30.410Z,1024.75
2022-09-22T05:22:30.412Z,1024.76
2022-09-22T05:23:30.433Z,1024.77
2022-09-22T05:24:30.427Z,1024.74
2022-09-22T05:25:30.416Z,1024.83
2022-09-22T05:26:30.494Z,1024.82
2022-09-22T05:27:30.417Z,1024.86
2022-09-22T05:28:30.403Z,1024.87
2022-09-22T05:29:30.416Z,1024.82
2022-09-22T05:30:30.406Z,1024.87
2022-09-22T05:31:30.443Z,1024.88
2022-09-22T05:32:30.408Z,1024.85
2022-09-22T05:33:30.408Z,1024.88
2022-09-22T05:34:30.418Z,1024.84
2022-09-22T05:35:35.808Z,1024.89
2022-09-22T05:36:30.413Z,1024.94
2022-09-22T05:37:30.419Z,1024.89
2022-09-22T05:38:30.415Z,1024.9
2022-09-22T05:39:30.424Z,1024.87
2022-09-22T05:40:30.485Z,1024.87
2022-09-22T05:41:30.423Z,1024.87
2022-09-22T05:42:30.404Z,1024.89
2022-09-22T05:43:30.409Z,1024.9
2022-09-22T05:44:30.431Z,1024.86
2022-09-22T05:45:30.435Z,1024.88
2022-09-22T05:46:30.405Z,1024.88
2022-09-22T05:47:30.401Z,1024.83
2022-09-22T05:48:31.484Z,1024.88
2022-09-22T05:49:30.429Z,1024.9
2022-09-22T05:50:30.400Z,1024.93
2022-09-22T05:51:30.403Z,1024.88
2022-09-22T05:52:30.404Z,1024.91
2022-09-22T05:53:30.409Z,1024.89
2022-09-22T05:54:30.426Z,1024.93
2022-09-22T05:55:30.421Z,1024.9
2022-09-22T05:56:30.420Z,1024.9
2022-09-22T05:57:30.412Z,1024.89
2022-09-22T05:58:30.426Z,1024.88
2022-09-22T05:59:30.421Z,1024.85
2022-09-22T06:00:30.427Z,1024.85
2022-09-22T06:01:30.460Z,1024.82
2022-09-22T06:02:30.421Z,1024.8
2022-09-22T06:03:30.410Z,1024.8
2022-09-22T06:04:30.424Z,1024.81
2022-09-22T06:05:30.419Z,1024.81
2022-09-22T06:06:30.413Z,1024.81
2022-09-22T06:07:30.427Z,1024.83
2022-09-22T06:08:30.410Z,1024.83
2022-09-22T06:09:30.414Z,1024.81
2022-09-22T06:10:30.407Z,1024.8
2022-09-22T06:11:30.415Z,1024.8
2022-09-22T06:12:30.399Z,1024.82
2022-09-22T06:13:30.411Z,1024.82
2022-09-22T06:14:30.431Z,1024.77
2022-09-22T06:15:30.408Z,1024.8
2022-09-22T06:16:30.485Z,1024.8
2022-09-22T06:17:30.399Z,1024.74
2022-09-22T06:18:30.406Z,1024.76
2022-09-22T06:19:30.424Z,1024.8
2022-09-22T06:20:30.407Z,1024.77
2022-09-22T06:21:30.469Z,1024.8
2022-09-22T06:22:30.402Z,1024.77
2022-09-22T06:23:30.395Z,1024.82
2022-09-22T06:24:30.414Z,1024.75
2022-09-22T06:25:30.399Z,1024.7
2022-09-22T06:26:30.420Z,1024.66
2022-09-22T06:27:30.405Z,1024.67
2022-09-22T06:28:30.412Z,1024.68
2022-09-22T06:29:30.415Z,1024.66
2022-09-22T06:30:30.419Z,1024.57
2022-09-22T06:31:30.487Z,1024.58
2022-09-22T06:32:30.416Z,1024.67
2022-09-22T06:33:30.413Z,1024.61
2022-09-22T06:34:30.418Z,1024.62
2022-09-22T06:35:30.424Z,1024.61
2022-09-22T06:36:30.412Z,1024.62
2022-09-22T06:37:30.405Z,1024.59
2022-09-22T06:38:30.400Z,1024.61
2022-09-22T06:39:30.434Z,1024.59
2022-09-22T06:40:30.479Z,1024.6
2022-09-22T06:41:30.423Z,1024.61
2022-09-22T06:42:30.411Z,1024.62
2022-09-22T06:43:30.403Z,1024.63
2022-09-22T06:44:30.418Z,1024.59
2022-09-22T06:45:30.453Z,1024.62
2022-09-22T06:46:30.406Z,1024.56
2022-09-22T06:47:30.410Z,1024.57
2022-09-22T06:48:30.404Z,1024.56
2022-09-22T06:49:30.431Z,1024.5
2022-09-22T06:50:30.769Z,1024.52
2022-09-22T06:51:30.411Z,1024.51
2022-09-22T06:52:30.405Z,1024.55
2022-09-22T06:53:30.406Z,1024.54
2022-09-22T06:54:30.411Z,1024.52
2022-09-22T06:55:30.409Z,1024.55
2022-09-22T06:56:31.438Z,1024.51
2022-09-22T06:57:30.395Z,1024.5
2022-09-22T06:58:42.409Z,1024.45
2022-09-22T06:59:30.419Z,1024.41
2022-09-22T07:00:30.573Z,1024.46
2022-09-22T07:01:30.538Z,1024.43
2022-09-22T07:02:30.407Z,1024.46
2022-09-22T07:03:30.404Z,1024.48
2022-09-22T07:04:30.423Z,1024.46
2022-09-22T07:05:30.413Z,1024.52
2022-09-22T07:06:30.409Z,1024.49
2022-09-22T07:07:30.412Z,1024.49
2022-09-22T07:08:30.415Z,1024.49
2022-09-22T07:09:30.423Z,1024.54
2022-09-22T07:10:30.405Z,1024.55
2022-09-22T07:11:30.426Z,1024.54
2022-09-22T07:12:30.412Z,1024.5
2022-09-22T07:13:30.414Z,1024.51
2022-09-22T07:14:30.413Z,1024.46
2022-09-22T07:15:30.405Z,1024.49
2022-09-22T07:16:30.543Z,1024.52
2022-09-22T07:17:30.411Z,1024.5
2022-09-22T07:18:30.403Z,1024.51
2022-09-22T07:19:30.420Z,1024.51
2022-09-22T07:20:30.437Z,1024.47
2022-09-22T07:21:30.414Z,1024.54
2022-09-22T07:22:30.398Z,1024.5
2022-09-22T07:23:30.404Z,1024.52
2022-09-22T07:24:30.417Z,1024.49
2022-09-22T07:25:30.402Z,1024.49
2022-09-22T07:26:30.427Z,1024.54
2022-09-22T07:27:30.437Z,1024.55
2022-09-22T07:28:30.414Z,1024.54
2022-09-22T07:29:30.414Z,1024.55
2022-09-22T07:30:30.491Z,1024.55
2022-09-22T07:31:30.452Z,1024.55
2022-09-22T07:32:30.404Z,1024.55
2022-09-22T07:33:30.410Z,1024.59
2022-09-22T07:34:30.408Z,1024.57
2022-09-22T07:35:30.425Z,1024.54
2022-09-22T07:36:30.416Z,1024.54
2022-09-22T07:37:30.397Z,1024.51
2022-09-22T07:38:30.405Z,1024.55
2022-09-22T07:39:30.412Z,1024.56
2022-09-22T07:40:30.467Z,1024.54
2022-09-22T07:41:30.419Z,1024.6
2022-09-22T07:42:30.408Z,1024.62
2022-09-22T07:43:30.417Z,1024.63
2022-09-22T07:44:30.419Z,1024.59
2022-09-22T07:45:30.410Z,1024.56
2022-09-22T07:46:30.473Z,1024.6
2022-09-22T07:47:30.406Z,1024.64
2022-09-22T07:48:30.402Z,1024.61
2022-09-22T07:49:30.537Z,1024.67
2022-09-22T07:50:30.416Z,1024.61
2022-09-22T07:51:30.399Z,1024.62
2022-09-22T07:52:30.485Z,1024.6
2022-09-22T07:53:30.404Z,1024.7
2022-09-22T07:54:30.474Z,1024.68
2022-09-22T07:55:30.410Z,1024.69
2022-09-22T07:56:30.709Z,1024.68
2022-09-22T07:57:30.398Z,1024.69
2022-09-22T07:58:30.396Z,1024.66
2022-09-22T07:59:30.412Z,1024.68
2022-09-22T08:00:30.438Z,1024.67
2022-09-22T08:01:30.404Z,1024.68
2022-09-22T08:02:30.401Z,1024.69
2022-09-22T08:03:30.412Z,1024.68
2022-09-22T08:04:30.422Z,1024.68
2022-09-22T08:05:30.403Z,1024.71
2022-09-22T08:06:30.401Z,1024.71
2022-09-22T08:07:30.405Z,1024.69
2022-09-22T08:08:30.396Z,1024.69
2022-09-22T08:09:30.570Z,1024.73
2022-09-22T08:10:30.407Z,1024.74
2022-09-22T08:11:30.415Z,1024.74
2022-09-22T08:12:30.408Z,1024.72
2022-09-22T08:13:30.423Z,1024.72
2022-09-22T08:14:30.411Z,1024.73
2022-09-22T08:15:30.400Z,1024.74
2022-09-22T08:16:30.438Z,1024.72
2022-09-22T08:17:30.405Z,1024.75
2022-09-22T08:18:30.403Z,1024.73
2022-09-22T08:19:30.423Z,1024.75
2022-09-22T08:20:30.407Z,1024.75
2022-09-22T08:21:30.405Z,1024.76
2022-09-22T08:22:30.415Z,1024.75
2022-09-22T08:23:30.408Z,1024.82
2022-09-22T08:24:30.417Z,1024.75
2022-09-22T08:25:30.448Z,1024.74
2022-09-22T08:26:30.420Z,1024.77
2022-09-22T08:27:30.405Z,1024.73
2022-09-22T08:28:30.404Z,1024.82
2022-09-22T08:29:30.425Z,1024.77
2022-09-22T08:30:30.407Z,1024.77
2022-09-22T08:31:30.464Z,1024.74
2022-09-22T08:32:30.408Z,1024.75
2022-09-22T08:33:30.407Z,1024.82
2022-09-22T08:34:30.427Z,1024.79
2022-09-22T08:35:30.406Z,1024.79
2022-09-22T08:36:30.419Z,1024.79
2022-09-22T08:37:30.399Z,1024.8
2022-09-22T08:38:30.407Z,1024.82
2022-09-22T08:39:30.422Z,1024.79
2022-09-22T08:40:30.515Z,1024.79
2022-09-22T08:41:30.430Z,1024.8
2022-09-22T08:42:30.409Z,1024.8
2022-09-22T08:43:30.397Z,1024.77
2022-09-22T08:44:30.439Z,1024.75
2022-09-22T08:45:30.404Z,1024.75
2022-09-22T08:46:30.497Z,1024.73
2022-09-22T08:47:30.401Z,1024.76
2022-09-22T08:48:30.405Z,1024.74
2022-09-22T08:49:30.424Z,1024.75
2022-09-22T08:50:30.452Z,1024.77
2022-09-22T08:51:30.409Z,1024.77
2022-09-22T08:52:30.412Z,1024.76
2022-09-22T08:53:30.398Z,1024.81
2022-09-22T08:54:30.412Z,1024.8
2022-09-22T08:55:30.406Z,1024.8
2022-09-22T08:56:30.430Z,1024.82
2022-09-22T08:57:30.401Z,1024.79
2022-09-22T08:58:30.405Z,1024.82
2022-09-22T08:59:30.423Z,1024.79
2022-09-22T09:00:30.406Z,1024.79
2022-09-22T09:01:30.496Z,1024.8
2022-09-22T09:02:30.433Z,1024.82
2022-09-22T09:03:30.403Z,1024.81
2022-09-22T09:04:30.424Z,1024.81
2022-09-22T09:05:30.400Z,1024.85
2022-09-22T09:06:30.400Z,1024.81
2022-09-22T09:07:30.414Z,1024.77
2022-09-22T09:08:30.414Z,1024.77
2022-09-22T09:09:30.448Z,1024.81
2022-09-22T09:10:30.400Z,1024.82
2022-09-22T09:11:30.412Z,1024.8
2022-09-22T09:12:30.464Z,1024.81
2022-09-22T09:13:30.397Z,1024.89
2022-09-22T09:14:30.416Z,1024.88
2022-09-22T09:15:30.407Z,1024.89
2022-09-22T09:16:32.966Z,1024.9
2022-09-22T09:17:30.457Z,1024.91
2022-09-22T09:18:30.404Z,1024.92
2022-09-22T09:19:30.419Z,1024.93
2022-09-22T09:20:30.408Z,1024.95
2022-09-22T09:21:30.405Z,1024.9
2022-09-22T09:22:30.400Z,1024.9
2022-09-22T09:25:30.397Z,1024.91
2022-09-22T09:26:30.417Z,1024.93
2022-09-22T09:27:30.406Z,1024.92
2022-09-22T09:28:30.400Z,1024.93
2022-09-22T09:29:30.411Z,1024.93
2022-09-22T09:30:30.419Z,1024.98
2022-09-22T09:31:30.430Z,1024.96
2022-09-22T09:32:30.403Z,1024.99
2022-09-22T09:33:30.412Z,1024.99
2022-09-22T09:34:30.410Z,1025.04
2022-09-22T09:35:30.418Z,1025.05
2022-09-22T09:36:30.394Z,1025.04
2022-09-22T09:37:30.429Z,1025.01
2022-09-22T09:38:30.400Z,1025.02
2022-09-22T09:39:30.423Z,1024.94
2022-09-22T09:40:30.455Z,1024.92
2022-09-22T09:41:30.431Z,1024.96
2022-09-22T09:42:30.402Z,1024.95
2022-09-22T09:43:30.398Z,1024.99
2022-09-22T09:44:30.438Z,1024.99
2022-09-22T09:45:30.403Z,1024.96
2022-09-22T09:46:30.469Z,1025.02
2022-09-22T09:47:30.398Z,1025
2022-09-22T09:48:30.401Z,1024.99
2022-09-22T09:49:30.416Z,1025.01
2022-09-22T09:50:30.402Z,1025.01
2022-09-22T09:51:30.409Z,1025.07
2022-09-22T09:52:30.405Z,1025.06
2022-09-22T09:53:30.395Z,1025.06
2022-09-22T09:54:30.420Z,1025.1
2022-09-22T09:55:30.414Z,1025.13
2022-09-22T09:56:30.411Z,1025.07
2022-09-22T09:57:30.404Z,1025.08
2022-09-22T09:58:30.400Z,1025.05
2022-09-22T09:59:30.430Z,1025.05
2022-09-22T10:00:30.414Z,1025.05
2022-09-22T10:01:30.429Z,1025.04
2022-09-22T10:02:30.446Z,1025.05
2022-09-22T10:03:30.416Z,1025
2022-09-22T10:04:30.417Z,1024.95
2022-09-22T10:05:30.407Z,1024.95
2022-09-22T10:06:30.405Z,1024.93
2022-09-22T10:08:30.433Z,1024.9
2022-09-22T10:09:30.409Z,1024.89
2022-09-22T10:10:30.404Z,1024.88
2022-09-22T10:11:30.412Z,1024.86
2022-09-22T10:12:30.394Z,1024.87
2022-09-22T10:13:30.409Z,1024.84
2022-09-22T10:14:30.434Z,1024.81
2022-09-22T10:15:30.497Z,1024.8
2022-09-22T10:16:30.409Z,1024.81
2022-09-22T10:17:30.405Z,1024.81
2022-09-22T10:18:30.396Z,1024.79
2022-09-22T10:19:30.416Z,1024.75
2022-09-22T10:20:30.407Z,1024.76
2022-09-22T10:21:30.403Z,1024.82
2022-09-22T10:22:30.412Z,1024.77
2022-09-22T10:23:30.409Z,1024.76
2022-09-22T10:24:30.415Z,1024.76
2022-09-22T10:25:30.404Z,1024.79
2022-09-22T10:26:30.417Z,1024.83
2022-09-22T10:27:30.399Z,1024.8
2022-09-22T10:28:30.406Z,1024.79
2022-09-22T10:29:30.412Z,1024.82
2022-09-22T10:30:30.400Z,1024.8
2022-09-22T10:31:30.486Z,1024.79
2022-09-22T10:32:30.403Z,1024.8
2022-09-22T10:33:30.401Z,1024.8
2022-09-22T10:34:30.421Z,1024.79
2022-09-22T10:35:30.400Z,1024.8
2022-09-22T10:36:30.400Z,1024.73
2022-09-22T10:37:30.411Z,1024.73
2022-09-22T10:38:30.476Z,1024.76
2022-09-22T10:39:30.421Z,1024.75
2022-09-22T10:40:30.476Z,1024.74
2022-09-22T10:41:30.417Z,1024.73
2022-09-22T10:42:30.407Z,1024.77
2022-09-22T10:43:30.404Z,1024.75
2022-09-22T10:44:40.149Z,1024.74
2022-09-22T10:45:30.422Z,1024.74
2022-09-22T10:46:30.413Z,1024.73
2022-09-22T10:47:30.399Z,1024.73
2022-09-22T10:48:30.406Z,1024.72
2022-09-22T10:49:30.412Z,1024.71
2022-09-22T10:50:30.404Z,1024.71
2022-09-22T10:51:30.425Z,1024.74
2022-09-22T10:52:30.403Z,1024.72
2022-09-22T10:53:30.469Z,1024.69
2022-09-22T10:54:30.412Z,1024.68
2022-09-22T10:55:30.396Z,1024.69
2022-09-22T10:56:30.417Z,1024.7
2022-09-22T10:57:30.415Z,1024.66
2022-09-22T10:58:30.392Z,1024.66
2022-09-22T10:59:30.455Z,1024.66
2022-09-22T11:00:31.495Z,1024.64
2022-09-22T11:01:30.455Z,1024.62
2022-09-22T11:02:30.399Z,1024.59
2022-09-22T11:03:30.397Z,1024.56
2022-09-22T11:04:30.562Z,1024.57
2022-09-22T11:05:30.399Z,1024.56
2022-09-22T11:06:30.407Z,1024.56
2022-09-22T11:07:30.397Z,1024.52
2022-09-22T11:08:30.418Z,1024.52
2022-09-22T11:09:30.487Z,1024.55
2022-09-22T11:10:30.405Z,1024.51
2022-09-22T11:11:31.247Z,1024.54
2022-09-22T11:12:30.408Z,1024.55
2022-09-22T11:13:30.395Z,1024.57
2022-09-22T11:14:30.411Z,1024.56
2022-09-22T11:15:30.476Z,1024.49
2022-09-22T11:16:30.409Z,1024.52
2022-09-22T11:17:30.406Z,1024.44
2022-09-22T11:18:30.411Z,1024.49
2022-09-22T11:19:30.416Z,1024.45
2022-09-22T11:20:30.411Z,1024.46
2022-09-22T11:21:30.402Z,1024.48
2022-09-22T11:22:30.411Z,1024.45
2022-09-22T11:23:30.398Z,1024.41
2022-09-22T11:24:30.408Z,1024.43
2022-09-22T11:25:30.402Z,1024.44
2022-09-22T11:26:30.415Z,1024.41
2022-09-22T11:27:30.410Z,1024.38
2022-09-22T11:28:30.411Z,1024.4
2022-09-22T11:29:30.418Z,1024.39
2022-09-22T11:30:30.395Z,1024.38
2022-09-22T11:31:30.405Z,1024.39
2022-09-22T11:32:30.408Z,1024.38
2022-09-22T11:33:30.400Z,1024.29
2022-09-22T11:34:30.411Z,1024.27
2022-09-22T11:35:30.401Z,1024.3
2022-09-22T11:36:30.400Z,1024.26
2022-09-22T11:37:30.404Z,1024.17
2022-09-22T11:38:30.406Z,1024.14
2022-09-22T11:39:30.417Z,1024.11
2022-09-22T11:40:30.456Z,1024.13
2022-09-22T11:41:30.460Z,1024.11
2022-09-22T11:42:30.397Z,1024.11
2022-09-22T11:43:30.399Z,1024.08
2022-09-22T11:44:56.600Z,1023.98
2022-09-22T11:45:55.452Z,1024.04
2022-09-22T11:46:55.371Z,1024.04
2022-09-22T11:47:55.372Z,1023.96
2022-09-22T11:48:55.368Z,1023.97
2022-09-22T11:49:55.386Z,1023.95
2022-09-22T11:50:55.368Z,1023.93
2022-09-22T11:51:55.372Z,1023.93
2022-09-22T11:52:58.461Z,1023.91
2022-09-22T11:53:55.366Z,1023.91
2022-09-22T11:55:00.562Z,1023.9
2022-09-22T11:55:55.366Z,1023.9
2022-09-22T11:56:55.381Z,1023.86
2022-09-22T11:57:55.378Z,1023.85
2022-09-22T11:58:55.358Z,1023.85
2022-09-22T11:59:55.377Z,1023.81
2022-09-22T12:00:55.363Z,1023.85
2022-09-22T12:01:55.364Z,1023.83
2022-09-22T12:02:56.050Z,1023.8
2022-09-22T12:03:55.359Z,1023.71
2022-09-22T12:04:55.385Z,1023.68
2022-09-22T12:05:55.358Z,1023.65
2022-09-22T12:06:55.364Z,1023.6
2022-09-22T12:07:55.357Z,1023.6
2022-09-22T12:09:55.384Z,1023.54
2022-09-22T12:10:55.407Z,1023.53
2022-09-22T12:11:55.379Z,1023.54
2022-09-22T12:12:55.357Z,1023.51
2022-09-22T12:13:55.367Z,1023.49
2022-09-22T12:14:55.361Z,1023.49
2022-09-22T12:15:55.559Z,1023.54